createdAt,value
2022-12-28T00:00:46.288Z,3.50
2022-12-28T00:04:24.060Z,7.60
2022-12-28T00:07:48.783Z,5.00
2022-12-28T00:11:08.691Z,4.47
2022-12-28T00:14:29.082Z,4.05
2022-12-28T00:17:49.090Z,5.18
2022-12-28T00:21:34.952Z,5.32
2022-12-28T00:24:58.305Z,7.70
2022-12-28T00:28:29.486Z,6.20
2022-12-28T00:32:00.253Z,5.30
2022-12-28T00:36:03.464Z,4.53
2022-12-28T00:39:31.127Z,4.12
2022-12-28T00:43:06.591Z,3.92
2022-12-28T00:46:44.447Z,2.58
2022-12-28T00:50:09.235Z,5.93
2022-12-28T00:53:43.444Z,2.30
2022-12-28T00:56:59.052Z,9.33
2022-12-28T01:00:37.802Z,4.47
2022-12-28T01:04:13.682Z,2.92
2022-12-28T01:07:56.503Z,4.12
2022-12-28T01:11:15.511Z,6.60
2022-12-28T01:14:36.502Z,2.78
2022-12-28T01:18:12.657Z,7.10
2022-12-28T01:21:44.415Z,2.30
2022-12-28T10:32:49.857Z,6.70
2022-12-28T10:36:57.305Z,7.30
2022-12-28T10:40:36.513Z,7.95
2022-12-28T10:44:40.044Z,12.80
2022-12-28T10:48:19.665Z,6.07
2022-12-28T10:52:25.043Z,11.45
2022-12-28T10:56:14.023Z,7.12
2022-12-28T10:59:40.836Z,5.65
2022-12-28T11:04:23.089Z,15.55
2022-12-28T11:10:30.850Z,4.07
2022-12-28T11:13:22.159Z,3.92
2022-12-28T14:24:16.874Z,3.28
2022-12-28T14:28:18.536Z,2.35
2022-12-28T14:31:43.742Z,5.62
2022-12-28T14:35:04.359Z,6.47
2022-12-28T14:38:45.498Z,8.80
2022-12-28T14:42:22.674Z,6.45
2022-12-28T14:46:14.155Z,6.68
2022-12-28T14:49:48.134Z,6.47
2022-12-28T14:53:25.262Z,6.57
2022-12-28T14:57:15.258Z,26.13
2022-12-28T15:01:03.720Z,23.05
2022-12-28T15:04:50.112Z,10.65
2022-12-28T15:12:29.689Z,2.67
2022-12-28T15:16:00.173Z,7.12
2022-12-28T15:19:35.912Z,3.28
2022-12-28T15:23:07.127Z,2.72
2022-12-28T15:26:43.769Z,4.95
2022-12-28T15:30:16.299Z,5.97
2022-12-28T15:33:50.816Z,5.33
2022-12-28T15:37:17.975Z,11.02
2022-12-28T15:40:44.744Z,9.43
2022-12-28T15:44:25.254Z,7.05
2022-12-28T15:47:55.250Z,11.12
2022-12-28T15:51:28.972Z,27.27
2022-12-28T15:55:05.418Z,34.05
2022-12-28T15:58:43.427Z,32.70
2022-12-28T16:02:18.401Z,30.62
2022-12-28T16:05:36.668Z,26.73
2022-12-28T16:09:05.452Z,65.87
2022-12-28T16:12:36.641Z,73.55
2022-12-28T16:16:13.817Z,44.83
2022-12-28T16:19:54.198Z,42.90
2022-12-28T16:23:35.258Z,203.07
2022-12-28T16:27:12.289Z,148.00
2022-12-28T16:30:51.226Z,154.63
2022-12-28T16:34:25.114Z,46.17
2022-12-28T16:41:10.444Z,31.90
2022-12-28T16:44:40.088Z,31.92
2022-12-28T16:48:14.924Z,40.55
2022-12-28T16:52:00.580Z,25.92
2022-12-28T16:59:14.925Z,31.40
2022-12-28T17:02:41.598Z,26.87
2022-12-28T17:06:11.149Z,27.17
2022-12-28T17:09:49.905Z,31.45
2022-12-28T17:16:59.550Z,9.73
2022-12-28T17:20:35.747Z,11.88
2022-12-28T17:24:05.256Z,15.45
2022-12-28T17:27:38.873Z,7.72
2022-12-28T17:31:18.131Z,11.93
2022-12-28T17:34:37.538Z,18.75
2022-12-28T17:38:06.892Z,7.95
2022-12-28T17:41:43.694Z,9.07
2022-12-28T17:45:17.601Z,6.93
2022-12-28T17:49:02.892Z,10.55
2022-12-28T17:52:38.949Z,8.95
2022-12-28T17:56:16.054Z,13.27
2022-12-28T17:59:44.417Z,14.63
2022-12-28T18:03:13.830Z,9.73
2022-12-28T18:06:45.349Z,7.28
2022-12-28T18:10:28.229Z,5.07
2022-12-28T18:13:57.189Z,4.32
2022-12-28T18:17:31.293Z,8.98
2022-12-28T18:21:08.356Z,5.68
2022-12-28T18:24:50.792Z,7.57
2022-12-28T18:28:32.382Z,5.43
2022-12-28T18:32:07.845Z,5.37
2022-12-28T18:39:13.953Z,3.67
2022-12-28T18:42:40.552Z,3.22
2022-12-28T18:46:34.339Z,6.97
2022-12-28T18:50:05.355Z,8.60
2022-12-28T18:53:42.334Z,6.18
2022-12-28T18:57:40.896Z,6.07
2022-12-28T19:01:55.936Z,6.72
2022-12-28T19:04:52.848Z,3.33
2022-12-28T19:08:41.642Z,8.38
2022-12-28T19:12:08.194Z,6.62
2022-12-28T19:15:34.468Z,4.22
2022-12-28T19:19:06.729Z,3.65
2022-12-28T19:22:23.767Z,5.78
2022-12-28T19:26:02.957Z,6.00
2022-12-28T19:29:40.977Z,8.60
2022-12-28T19:33:12.099Z,4.05
2022-12-28T19:36:43.784Z,2.97
2022-12-28T19:40:19.554Z,3.92
2022-12-28T19:43:53.248Z,3.87
2022-12-28T19:47:12.414Z,7.03
2022-12-28T19:50:45.088Z,2.95
2022-12-28T19:54:25.378Z,7.95
2022-12-28T19:58:07.049Z,9.60
2022-12-28T20:01:48.971Z,8.57
2022-12-28T20:05:20.539Z,7.93
2022-12-28T20:08:56.112Z,6.37
2022-12-28T20:12:28.475Z,10.43
2022-12-28T20:15:53.123Z,10.25
2022-12-28T20:19:30.821Z,5.30
2022-12-28T20:23:13.378Z,3.83
2022-12-28T20:26:44.740Z,5.53
2022-12-28T20:30:13.254Z,4.68
2022-12-28T20:33:52.598Z,5.72
2022-12-28T20:37:26.908Z,7.75
2022-12-28T20:41:07.861Z,9.32
2022-12-28T20:44:47.203Z,6.15
2022-12-28T20:48:21.034Z,6.03
2022-12-28T20:52:00.408Z,10.35
2022-12-28T20:55:29.684Z,10.75
2022-12-28T20:59:09.058Z,14.32
2022-12-28T21:02:25.978Z,15.30
2022-12-28T21:06:00.068Z,9.48
2022-12-28T21:09:35.553Z,7.35
2022-12-28T21:13:19.294Z,9.07
2022-12-28T21:16:55.179Z,7.97
2022-12-28T21:20:26.676Z,4.95
2022-12-28T21:24:05.242Z,11.45
2022-12-28T21:27:35.677Z,7.75
2022-12-28T21:31:10.505Z,10.95
2022-12-28T21:34:37.325Z,7.07
2022-12-28T21:38:01.234Z,9.13
2022-12-28T21:41:48.951Z,6.55
2022-12-28T21:45:18.926Z,7.72
2022-12-28T21:48:51.241Z,9.63
2022-12-28T21:52:32.225Z,10.32
2022-12-28T21:56:13.912Z,10.48
2022-12-28T21:59:46.825Z,9.00
2022-12-28T22:03:36.646Z,10.10
2022-12-28T22:07:04.933Z,8.38
2022-12-28T22:10:56.276Z,16.05
2022-12-28T22:14:21.964Z,8.95
2022-12-28T22:17:55.126Z,5.03
2022-12-28T22:21:34.001Z,4.45
2022-12-28T22:25:05.562Z,7.95
2022-12-28T22:28:44.722Z,7.87
2022-12-28T22:32:23.533Z,5.75
2022-12-28T22:35:51.019Z,5.22
2022-12-28T22:39:30.152Z,10.20
2022-12-28T22:43:34.695Z,7.45
2022-12-28T22:47:40.002Z,8.85
2022-12-28T22:52:03.025Z,12.27
2022-12-28T22:56:15.466Z,5.93
2022-12-28T23:00:34.806Z,4.65
2022-12-28T23:04:55.763Z,7.75
2022-12-28T23:09:12.729Z,8.90
2022-12-28T23:13:48.409Z,6.93
2022-12-28T23:18:26.243Z,8.90
2022-12-28T23:22:53.627Z,4.28
2022-12-28T23:27:31.054Z,9.20
2022-12-28T23:31:26.083Z,6.65
2022-12-28T23:38:00.701Z,6.87
2022-12-28T23:45:11.504Z,4.18
2022-12-28T23:54:56.801Z,6.80
2022-12-28T23:58:50.412Z,3.30
